sensor_id;sensor_type;location;lat;lon;timestamp;pressure;altitude;pressure_sealevel;temperature;humidity
72640;BME280;60683;51.730;8.762;2023-09-19T00:02:21;99524.72;;;16.02;89.15
72640;BME280;60683;51.730;8.762;2023-09-19T00:04:49;99525.00;;;16.01;89.22
72640;BME280;60683;51.730;8.762;2023-09-19T00:07:17;99523.16;;;15.96;89.32
72640;BME280;60683;51.730;8.762;2023-09-19T00:09:44;99523.47;;;15.89;90.00
72640;BME280;60683;51.730;8.762;2023-09-19T00:12:12;99537.31;;;15.88;89.53
72640;BME280;60683;51.730;8.762;2023-09-19T00:14:39;99536.78;;;15.86;89.49
72640;BME280;60683;51.730;8.762;2023-09-19T00:17:06;99533.50;;;15.89;88.78
72640;BME280;60683;51.730;8.762;2023-09-19T00:19:35;99533.53;;;15.84;89.23
72640;BME280;60683;51.730;8.762;2023-09-19T00:22:04;99537.91;;;15.80;89.43
72640;BME280;60683;51.730;8.762;2023-09-19T00:24:31;99546.06;;;15.75;89.92
72640;BME280;60683;51.730;8.762;2023-09-19T00:26:58;99541.50;;;15.70;90.02
72640;BME280;60683;51.730;8.762;2023-09-19T00:29:25;99539.84;;;15.74;89.75
72640;BME280;60683;51.730;8.762;2023-09-19T00:31:55;99559.94;;;15.68;90.20
72640;BME280;60683;51.730;8.762;2023-09-19T00:34:23;99547.56;;;15.57;91.10
72640;BME280;60683;51.730;8.762;2023-09-19T00:36:50;99563.00;;;15.51;91.02
72640;BME280;60683;51.730;8.762;2023-09-19T00:39:19;99568.44;;;15.57;90.76
72640;BME280;60683;51.730;8.762;2023-09-19T00:41:48;99561.31;;;15.61;90.35
72640;BME280;60683;51.730;8.762;2023-09-19T00:44:15;99553.69;;;15.68;89.61
72640;BME280;60683;51.730;8.762;2023-09-19T00:46:44;99563.13;;;15.75;89.25
72640;BME280;60683;51.730;8.762;2023-09-19T00:49:14;99568.81;;;15.79;88.59
72640;BME280;60683;51.730;8.762;2023-09-19T00:51:42;99570.97;;;15.82;89.03
72640;BME280;60683;51.730;8.762;2023-09-19T00:54:13;99568.81;;;15.79;89.21
72640;BME280;60683;51.730;8.762;2023-09-19T00:56:46;99570.44;;;15.80;88.61
72640;BME280;60683;51.730;8.762;2023-09-19T00:59:14;99567.22;;;15.73;89.12
72640;BME280;60683;51.730;8.762;2023-09-19T01:01:43;99582.69;;;15.67;89.48
72640;BME280;60683;51.730;8.762;2023-09-19T01:04:11;99578.66;;;15.65;89.26
72640;BME280;60683;51.730;8.762;2023-09-19T01:06:39;99583.00;;;15.61;89.92
72640;BME280;60683;51.730;8.762;2023-09-19T01:09:05;99578.16;;;15.58;89.54
72640;BME280;60683;51.730;8.762;2023-09-19T01:11:38;99592.81;;;15.46;90.02
72640;BME280;60683;51.730;8.762;2023-09-19T01:14:16;99592.00;;;15.46;89.34
72640;BME280;60683;51.730;8.762;2023-09-19T01:16:52;99606.66;;;15.40;89.64
72640;BME280;60683;51.730;8.762;2023-09-19T01:19:35;99603.13;;;15.44;88.64
72640;BME280;60683;51.730;8.762;2023-09-19T01:22:16;99604.44;;;15.52;87.63
72640;BME280;60683;51.730;8.762;2023-09-19T01:25:20;99607.69;;;15.59;86.16
72640;BME280;60683;51.730;8.762;2023-09-19T01:28:10;99603.09;;;15.54;86.04
72640;BME280;60683;51.730;8.762;2023-09-19T01:30:44;99603.91;;;15.50;85.61
72640;BME280;60683;51.730;8.762;2023-09-19T01:33:15;99612.63;;;15.42;86.28
72640;BME280;60683;51.730;8.762;2023-09-19T01:35:44;99607.78;;;15.34;87.48
72640;BME280;60683;51.730;8.762;2023-09-19T01:38:11;99608.88;;;15.28;87.78
72640;BME280;60683;51.730;8.762;2023-09-19T01:40:41;99606.44;;;15.26;87.72
72640;BME280;60683;51.730;8.762;2023-09-19T01:43:13;99623.75;;;15.30;88.05
72640;BME280;60683;51.730;8.762;2023-09-19T01:45:51;99622.09;;;15.39;88.00
72640;BME280;60683;51.730;8.762;2023-09-19T01:48:26;99618.00;;;15.47;88.14
72640;BME280;60683;51.730;8.762;2023-09-19T01:51:00;99624.22;;;15.52;88.30
72640;BME280;60683;51.730;8.762;2023-09-19T01:53:45;99628.84;;;15.57;88.30
72640;BME280;60683;51.730;8.762;2023-09-19T01:56:23;99633.97;;;15.59;87.25
72640;BME280;60683;51.730;8.762;2023-09-19T01:58:54;99637.78;;;15.58;87.48
72640;BME280;60683;51.730;8.762;2023-09-19T02:01:24;99645.03;;;15.62;86.01
72640;BME280;60683;51.730;8.762;2023-09-19T02:03:53;99644.22;;;15.62;84.59
72640;BME280;60683;51.730;8.762;2023-09-19T02:06:21;99642.59;;;15.61;84.87
72640;BME280;60683;51.730;8.762;2023-09-19T02:08:51;99645.03;;;15.62;84.03
72640;BME280;60683;51.730;8.762;2023-09-19T02:11:18;99656.13;;;15.66;82.72
72640;BME280;60683;51.730;8.762;2023-09-19T02:13:45;99665.34;;;15.65;82.69
72640;BME280;60683;51.730;8.762;2023-09-19T02:16:12;99656.13;;;15.66;82.50
72640;BME280;60683;51.730;8.762;2023-09-19T02:18:41;99661.56;;;15.66;82.89
72640;BME280;60683;51.730;8.762;2023-09-19T02:21:07;99668.06;;;15.65;81.82
72640;BME280;60683;51.730;8.762;2023-09-19T02:23:38;99668.59;;;15.67;82.15
72640;BME280;60683;51.730;8.762;2023-09-19T02:26:04;99669.41;;;15.62;81.79
72640;BME280;60683;51.730;8.762;2023-09-19T02:28:32;99669.69;;;15.61;81.32
72640;BME280;60683;51.730;8.762;2023-09-19T02:30:59;99668.38;;;15.53;81.46
72640;BME280;60683;51.730;8.762;2023-09-19T02:37:27;99671.66;;;15.45;81.25
72640;BME280;60683;51.730;8.762;2023-09-19T02:39:54;99673.00;;;15.42;80.92
72640;BME280;60683;51.730;8.762;2023-09-19T02:42:21;99674.38;;;15.40;81.72
72640;BME280;60683;51.730;8.762;2023-09-19T02:44:48;99679.25;;;15.43;81.57
72640;BME280;60683;51.730;8.762;2023-09-19T02:47:15;99675.19;;;15.40;81.65
72640;BME280;60683;51.730;8.762;2023-09-19T02:49:42;99679.53;;;15.36;81.56
72640;BME280;60683;51.730;8.762;2023-09-19T02:52:09;99679.00;;;15.34;81.42
72640;BME280;60683;51.730;8.762;2023-09-19T02:54:38;99686.31;;;15.29;82.02
72640;BME280;60683;51.730;8.762;2023-09-19T02:57:05;99677.94;;;15.25;81.68
72640;BME280;60683;51.730;8.762;2023-09-19T02:59:33;99680.66;;;15.25;81.54
72640;BME280;60683;51.730;8.762;2023-09-19T03:02:03;99670.91;;;15.24;81.08
72640;BME280;60683;51.730;8.762;2023-09-19T03:04:31;99673.63;;;15.19;81.04
72640;BME280;60683;51.730;8.762;2023-09-19T03:06:58;99679.56;;;15.16;81.83
72640;BME280;60683;51.730;8.762;2023-09-19T03:09:27;99683.09;;;15.11;81.65
72640;BME280;60683;51.730;8.762;2023-09-19T03:11:55;99687.97;;;15.09;82.08
72640;BME280;60683;51.730;8.762;2023-09-19T03:14:22;99684.47;;;15.09;81.56
72640;BME280;60683;51.730;8.762;2023-09-19T03:16:50;99679.06;;;15.09;81.18
72640;BME280;60683;51.730;8.762;2023-09-19T03:19:18;99691.78;;;15.08;81.61
72640;BME280;60683;51.730;8.762;2023-09-19T03:21:46;99700.44;;;15.10;81.18
72640;BME280;60683;51.730;8.762;2023-09-19T03:24:16;99688.25;;;15.08;80.89
72640;BME280;60683;51.730;8.762;2023-09-19T03:26:43;99707.75;;;15.10;81.18
72640;BME280;60683;51.730;8.762;2023-09-19T03:29:12;99709.38;;;15.11;81.57
72640;BME280;60683;51.730;8.762;2023-09-19T03:31:39;99703.41;;;15.14;80.79
72640;BME280;60683;51.730;8.762;2023-09-19T03:34:06;99713.16;;;15.15;80.57
72640;BME280;60683;51.730;8.762;2023-09-19T03:36:34;99714.50;;;15.12;80.31
72640;BME280;60683;51.730;8.762;2023-09-19T03:39:04;99714.53;;;15.07;81.04
72640;BME280;60683;51.730;8.762;2023-09-19T03:41:31;99712.13;;;15.01;80.50
72640;BME280;60683;51.730;8.762;2023-09-19T03:43:58;99712.13;;;14.96;80.59
72640;BME280;60683;51.730;8.762;2023-09-19T03:46:27;99721.88;;;14.86;81.44
72640;BME280;60683;51.730;8.762;2023-09-19T03:48:59;99718.63;;;14.79;81.38
72640;BME280;60683;51.730;8.762;2023-09-19T03:51:25;99715.38;;;14.77;81.70
72640;BME280;60683;51.730;8.762;2023-09-19T03:53:53;99702.66;;;14.73;81.19
72640;BME280;60683;51.730;8.762;2023-09-19T03:56:20;99708.59;;;14.70;80.66
72640;BME280;60683;51.730;8.762;2023-09-19T03:58:48;99715.38;;;14.67;80.53
72640;BME280;60683;51.730;8.762;2023-09-19T04:01:16;99723.47;;;14.67;80.14
72640;BME280;60683;51.730;8.762;2023-09-19T04:03:45;99713.72;;;14.61;80.10
72640;BME280;60683;51.730;8.762;2023-09-19T04:06:13;99717.53;;;14.55;80.39
72640;BME280;60683;51.730;8.762;2023-09-19T04:08:41;99722.97;;;14.55;79.29
72640;BME280;60683;51.730;8.762;2023-09-19T04:11:10;99720.25;;;14.50;78.93
72640;BME280;60683;51.730;8.762;2023-09-19T04:13:37;99715.38;;;14.47;79.06
72640;BME280;60683;51.730;8.762;2023-09-19T04:16:05;99719.16;;;14.46;79.21
72640;BME280;60683;51.730;8.762;2023-09-19T04:18:33;99721.59;;;14.47;78.35
72640;BME280;60683;51.730;8.762;2023-09-19T04:21:05;99710.22;;;14.45;77.85
72640;BME280;60683;51.730;8.762;2023-09-19T04:23:34;99718.06;;;14.42;78.21
72640;BME280;60683;51.730;8.762;2023-09-19T04:26:01;99722.91;;;14.40;78.21
72640;BME280;60683;51.730;8.762;2023-09-19T04:28:30;99720.47;;;14.38;77.98
72640;BME280;60683;51.730;8.762;2023-09-19T04:30:58;99718.00;;;14.32;78.48
72640;BME280;60683;51.730;8.762;2023-09-19T04:33:25;99715.31;;;14.27;78.71
72640;BME280;60683;51.730;8.762;2023-09-19T04:39:54;99725.56;;;14.19;78.90
72640;BME280;60683;51.730;8.762;2023-09-19T04:42:21;99729.34;;;14.18;78.81
72640;BME280;60683;51.730;8.762;2023-09-19T04:44:50;99723.94;;;14.18;78.62
72640;BME280;60683;51.730;8.762;2023-09-19T04:47:19;99722.84;;;14.14;78.77
72640;BME280;60683;51.730;8.762;2023-09-19T04:49:46;99725.81;;;14.13;78.79
72640;BME280;60683;51.730;8.762;2023-09-19T04:52:14;99735.53;;;14.09;79.42
72640;BME280;60683;51.730;8.762;2023-09-19T04:54:41;99742.28;;;14.11;78.69
72640;BME280;60683;51.730;8.762;2023-09-19T04:57:10;99741.22;;;14.12;78.26
72640;BME280;60683;51.730;8.762;2023-09-19T04:59:38;99748.25;;;14.13;77.95
72640;BME280;60683;51.730;8.762;2023-09-19T05:02:07;99752.00;;;14.07;78.22
72640;BME280;60683;51.730;8.762;2023-09-19T05:04:35;99756.63;;;14.12;77.89
72640;BME280;60683;51.730;8.762;2023-09-19T05:07:03;99764.72;;;14.12;78.29
72640;BME280;60683;51.730;8.762;2023-09-19T05:09:30;99765.28;;;14.14;77.86
72640;BME280;60683;51.730;8.762;2023-09-19T05:12:00;99763.91;;;14.06;77.66
72640;BME280;60683;51.730;8.762;2023-09-19T05:14:28;99762.53;;;13.99;77.64
72640;BME280;60683;51.730;8.762;2023-09-19T05:16:55;99772.53;;;13.93;78.05
72640;BME280;60683;51.730;8.762;2023-09-19T05:19:22;99773.59;;;13.92;77.47
72640;BME280;60683;51.730;8.762;2023-09-19T05:21:49;99778.72;;;13.88;76.96
72640;BME280;60683;51.730;8.762;2023-09-19T05:24:16;99787.88;;;13.82;77.26
72640;BME280;60683;51.730;8.762;2023-09-19T05:26:43;99791.91;;;13.80;77.31
72640;BME280;60683;51.730;8.762;2023-09-19T05:29:11;99793.53;;;13.81;76.83
72640;BME280;60683;51.730;8.762;2023-09-19T05:31:40;99791.09;;;13.79;76.84
72640;BME280;60683;51.730;8.762;2023-09-19T05:34:12;99795.69;;;13.79;76.67
72640;BME280;60683;51.730;8.762;2023-09-19T05:36:39;99801.09;;;13.79;76.95
72640;BME280;60683;51.730;8.762;2023-09-19T05:39:07;99795.16;;;13.82;75.63
72640;BME280;60683;51.730;8.762;2023-09-19T05:41:35;99795.44;;;13.85;75.59
72640;BME280;60683;51.730;8.762;2023-09-19T05:44:05;99806.53;;;13.89;75.17
72640;BME280;60683;51.730;8.762;2023-09-19T05:46:33;99809.00;;;13.90;75.43
72640;BME280;60683;51.730;8.762;2023-09-19T05:49:01;99809.25;;;13.89;75.89
72640;BME280;60683;51.730;8.762;2023-09-19T05:51:29;99817.63;;;13.87;75.38
72640;BME280;60683;51.730;8.762;2023-09-19T05:53:56;99818.47;;;13.93;75.38
72640;BME280;60683;51.730;8.762;2023-09-19T05:56:23;99828.19;;;13.94;75.78
72640;BME280;60683;51.730;8.762;2023-09-19T05:58:50;99835.78;;;13.97;75.04
72640;BME280;60683;51.730;8.762;2023-09-19T06:01:19;99849.03;;;13.99;75.46
72640;BME280;60683;51.730;8.762;2023-09-19T06:03:45;99834.97;;;13.97;74.88
72640;BME280;60683;51.730;8.762;2023-09-19T06:06:14;99847.91;;;13.95;75.02
72640;BME280;60683;51.730;8.762;2023-09-19T06:08:42;99856.28;;;13.93;75.29
72640;BME280;60683;51.730;8.762;2023-09-19T06:11:10;99855.22;;;13.94;75.02
72640;BME280;60683;51.730;8.762;2023-09-19T06:13:37;99859.25;;;13.91;74.63
72640;BME280;60683;51.730;8.762;2023-09-19T06:16:06;99862.78;;;13.92;74.55
72640;BME280;60683;51.730;8.762;2023-09-19T06:18:35;99868.19;;;13.92;75.32
72640;BME280;60683;51.730;8.762;2023-09-19T06:21:02;99852.22;;;13.90;74.50
72640;BME280;60683;51.730;8.762;2023-09-19T06:23:34;99862.81;;;13.97;74.57
72640;BME280;60683;51.730;8.762;2023-09-19T06:26:02;99867.13;;;13.98;74.70
72640;BME280;60683;51.730;8.762;2023-09-19T06:28:32;99859.56;;;14.05;73.62
72640;BME280;60683;51.730;8.762;2023-09-19T06:31:01;99865.03;;;14.15;73.28
72640;BME280;60683;51.730;8.762;2023-09-19T06:33:29;99858.56;;;14.21;72.74
72640;BME280;60683;51.730;8.762;2023-09-19T06:35:57;99852.66;;;14.30;73.12
72640;BME280;60683;51.730;8.762;2023-09-19T06:38:25;99853.22;;;14.32;72.91
72640;BME280;60683;51.730;8.762;2023-09-19T06:40:54;99851.97;;;14.49;72.25
72640;BME280;60683;51.730;8.762;2023-09-19T06:43:21;99857.09;;;14.56;71.80
72640;BME280;60683;51.730;8.762;2023-09-19T06:45:49;99851.69;;;14.61;71.36
72640;BME280;60683;51.730;8.762;2023-09-19T06:48:17;99854.97;;;14.73;71.02
72640;BME280;60683;51.730;8.762;2023-09-19T06:50:44;99851.44;;;14.68;70.76
72640;BME280;60683;51.730;8.762;2023-09-19T06:53:13;99843.88;;;14.70;70.48
72640;BME280;60683;51.730;8.762;2023-09-19T06:55:40;99849.03;;;14.76;70.45
72640;BME280;60683;51.730;8.762;2023-09-19T06:58:11;99858.78;;;14.82;70.20
72640;BME280;60683;51.730;8.762;2023-09-19T07:00:38;99858.25;;;14.80;70.51
72640;BME280;60683;51.730;8.762;2023-09-19T07:03:06;99859.63;;;14.93;70.38
72640;BME280;60683;51.730;8.762;2023-09-19T07:05:39;99855.28;;;14.87;69.77
72640;BME280;60683;51.730;8.762;2023-09-19T07:08:06;99861.00;;;14.96;69.60
72640;BME280;60683;51.730;8.762;2023-09-19T07:10:35;99864.22;;;14.93;70.12
72640;BME280;60683;51.730;8.762;2023-09-19T07:13:03;99860.44;;;14.99;69.99
72640;BME280;60683;51.730;8.762;2023-09-19T07:15:33;99857.75;;;15.04;69.70
72640;BME280;60683;51.730;8.762;2023-09-19T07:18:01;99863.16;;;15.14;69.83
72640;BME280;60683;51.730;8.762;2023-09-19T07:20:29;99866.94;;;15.23;69.85
72640;BME280;60683;51.730;8.762;2023-09-19T07:22:57;99857.75;;;15.19;69.73
72640;BME280;60683;51.730;8.762;2023-09-19T07:25:26;99861.53;;;15.23;69.19
72640;BME280;60683;51.730;8.762;2023-09-19T07:27:54;99861.53;;;15.18;69.40
72640;BME280;60683;51.730;8.762;2023-09-19T07:30:22;99864.50;;;15.27;69.77
72640;BME280;60683;51.730;8.762;2023-09-19T07:32:50;99869.13;;;15.26;69.63
72640;BME280;60683;51.730;8.762;2023-09-19T07:35:18;99885.09;;;15.38;69.74
72640;BME280;60683;51.730;8.762;2023-09-19T07:37:45;99888.06;;;15.36;69.55
72640;BME280;60683;51.730;8.762;2023-09-19T07:40:15;99888.63;;;15.33;69.18
72640;BME280;60683;51.730;8.762;2023-09-19T07:42:42;99889.16;;;15.40;69.27
72640;BME280;60683;51.730;8.762;2023-09-19T07:45:10;99886.19;;;15.42;69.78
72640;BME280;60683;51.730;8.762;2023-09-19T07:47:44;99887.53;;;15.39;68.68
72640;BME280;60683;51.730;8.762;2023-09-19T07:50:13;99873.44;;;15.63;68.74
72640;BME280;60683;51.730;8.762;2023-09-19T07:52:41;99892.16;;;15.64;68.64
72640;BME280;60683;51.730;8.762;2023-09-19T07:55:08;99890.78;;;15.77;68.09
72640;BME280;60683;51.730;8.762;2023-09-19T07:57:36;99887.00;;;15.78;67.85
72640;BME280;60683;51.730;8.762;2023-09-19T08:00:05;99889.69;;;15.83;67.51
72640;BME280;60683;51.730;8.762;2023-09-19T08:02:34;99889.41;;;15.89;67.56
72640;BME280;60683;51.730;8.762;2023-09-19T08:05:02;99874.78;;;15.91;67.54
72640;BME280;60683;51.730;8.762;2023-09-19T08:07:33;99880.72;;;15.98;67.63
72640;BME280;60683;51.730;8.762;2023-09-19T08:10:22;99875.56;;;15.96;66.85
72640;BME280;60683;51.730;8.762;2023-09-19T08:12:50;99887.75;;;16.04;67.47
72640;BME280;60683;51.730;8.762;2023-09-19T08:15:22;99893.66;;;16.16;67.62
72640;BME280;60683;51.730;8.762;2023-09-19T08:17:49;99890.69;;;16.17;67.05
72640;BME280;60683;51.730;8.762;2023-09-19T08:20:16;99888.50;;;16.14;67.57
72640;BME280;60683;51.730;8.762;2023-09-19T08:22:47;99885.22;;;16.28;67.69
72640;BME280;60683;51.730;8.762;2023-09-19T08:25:15;99889.50;;;16.44;67.19
72640;BME280;60683;51.730;8.762;2023-09-19T08:27:44;99889.00;;;16.37;66.75
72640;BME280;60683;51.730;8.762;2023-09-19T08:30:14;99899.28;;;16.45;66.99
72640;BME280;60683;51.730;8.762;2023-09-19T08:32:42;99894.63;;;16.55;67.61
72640;BME280;60683;51.730;8.762;2023-09-19T08:35:10;99886.78;;;16.49;67.53
72640;BME280;60683;51.730;8.762;2023-09-19T08:37:37;99877.50;;;16.60;66.66
72640;BME280;60683;51.730;8.762;2023-09-19T08:40:08;99873.69;;;16.61;66.65
72640;BME280;60683;51.730;8.762;2023-09-19T08:42:48;99880.19;;;16.65;65.96
72640;BME280;60683;51.730;8.762;2023-09-19T08:45:16;99885.09;;;16.63;66.54
72640;BME280;60683;51.730;8.762;2023-09-19T08:47:46;99880.97;;;16.71;66.19
72640;BME280;60683;51.730;8.762;2023-09-19T08:50:19;99869.38;;;16.55;66.25
72640;BME280;60683;51.730;8.762;2023-09-19T08:52:51;99888.50;;;16.84;66.32
72640;BME280;60683;51.730;8.762;2023-09-19T08:55:23;99889.59;;;16.83;66.43
72640;BME280;60683;51.730;8.762;2023-09-19T08:57:59;99897.94;;;16.97;65.94
72640;BME280;60683;51.730;8.762;2023-09-19T09:00:28;99892.81;;;16.90;65.81
72640;BME280;60683;51.730;8.762;2023-09-19T09:02:55;99904.56;;;16.75;65.10
72640;BME280;60683;51.730;8.762;2023-09-19T09:05:27;99904.47;;;16.96;64.94
72640;BME280;60683;51.730;8.762;2023-09-19T09:07:56;99902.06;;;16.89;65.13
72640;BME280;60683;51.730;8.762;2023-09-19T09:10:25;99889.63;;;16.78;65.03
72640;BME280;60683;51.730;8.762;2023-09-19T09:12:53;99906.38;;;16.95;65.11
72640;BME280;60683;51.730;8.762;2023-09-19T09:15:21;99905.78;;;17.03;64.55
72640;BME280;60683;51.730;8.762;2023-09-19T09:17:49;99906.63;;;16.99;64.79
72640;BME280;60683;51.730;8.762;2023-09-19T09:20:19;99917.97;;;17.11;63.47
72640;BME280;60683;51.730;8.762;2023-09-19T09:22:52;99924.44;;;17.15;63.13
72640;BME280;60683;51.730;8.762;2023-09-19T09:25:20;99908.19;;;17.10;63.30
72640;BME280;60683;51.730;8.762;2023-09-19T09:28:00;99923.19;;;17.36;63.05
72640;BME280;60683;51.730;8.762;2023-09-19T09:30:35;99921.00;;;17.38;62.56
72640;BME280;60683;51.730;8.762;2023-09-19T09:33:09;99923.25;;;17.26;63.26
72640;BME280;60683;51.730;8.762;2023-09-19T09:35:47;99915.31;;;17.35;63.08
72640;BME280;60683;51.730;8.762;2023-09-19T09:38:18;99925.69;;;17.28;62.45
72640;BME280;60683;51.730;8.762;2023-09-19T09:40:47;99921.88;;;17.29;63.15
72640;BME280;60683;51.730;8.762;2023-09-19T09:43:33;99913.75;;;17.63;62.44
72640;BME280;60683;51.730;8.762;2023-09-19T09:46:12;99914.16;;;17.46;60.54
72640;BME280;60683;51.730;8.762;2023-09-19T09:48:58;99920.97;;;17.43;61.23
72640;BME280;60683;51.730;8.762;2023-09-19T09:51:47;99915.00;;;17.41;61.78
72640;BME280;60683;51.730;8.762;2023-09-19T09:54:23;99903.84;;;17.77;61.07
72640;BME280;60683;51.730;8.762;2023-09-19T09:56:54;99909.72;;;17.89;60.38
72640;BME280;60683;51.730;8.762;2023-09-19T09:59:58;99913.09;;;17.76;59.07
72640;BME280;60683;51.730;8.762;2023-09-19T10:02:42;99910.81;;;17.88;59.88
72640;BME280;60683;51.730;8.762;2023-09-19T10:05:13;99937.09;;;17.69;60.06
72640;BME280;60683;51.730;8.762;2023-09-19T10:07:47;99920.69;;;17.79;59.82
72640;BME280;60683;51.730;8.762;2023-09-19T10:10:29;99918.53;;;17.76;58.81
72640;BME280;60683;51.730;8.762;2023-09-19T10:13:05;99917.47;;;17.72;60.04
72640;BME280;60683;51.730;8.762;2023-09-19T10:15:35;99908.44;;;17.81;60.05
72640;BME280;60683;51.730;8.762;2023-09-19T10:18:04;99911.13;;;18.10;59.09
72640;BME280;60683;51.730;8.762;2023-09-19T10:20:32;99903.66;;;18.21;57.82
72640;BME280;60683;51.730;8.762;2023-09-19T10:23:05;99902.34;;;18.18;57.18
72640;BME280;60683;51.730;8.762;2023-09-19T10:25:37;99901.00;;;18.16;55.78
72640;BME280;60683;51.730;8.762;2023-09-19T10:28:06;99907.66;;;18.05;57.06
72640;BME280;60683;51.730;8.762;2023-09-19T10:30:40;99906.16;;;18.17;56.91
72640;BME280;60683;51.730;8.762;2023-09-19T10:33:11;99907.19;;;18.22;56.07
72640;BME280;60683;51.730;8.762;2023-09-19T10:35:39;99902.72;;;18.31;56.16
72640;BME280;60683;51.730;8.762;2023-09-19T10:38:10;99908.06;;;18.17;56.66
72640;BME280;60683;51.730;8.762;2023-09-19T10:40:38;99904.00;;;18.38;56.46
72640;BME280;60683;51.730;8.762;2023-09-19T10:43:13;99904.84;;;18.63;55.47
72640;BME280;60683;51.730;8.762;2023-09-19T10:45:47;99906.16;;;18.65;54.68
72640;BME280;60683;51.730;8.762;2023-09-19T10:48:16;99909.69;;;18.84;54.69
72640;BME280;60683;51.730;8.762;2023-09-19T10:50:48;99915.06;;;18.90;53.40
72640;BME280;60683;51.730;8.762;2023-09-19T10:53:17;99911.91;;;18.82;51.82
72640;BME280;60683;51.730;8.762;2023-09-19T10:55:52;99911.91;;;18.82;52.79
72640;BME280;60683;51.730;8.762;2023-09-19T10:58:25;99903.66;;;18.88;52.29
72640;BME280;60683;51.730;8.762;2023-09-19T11:00:56;99910.41;;;19.46;52.24
72640;BME280;60683;51.730;8.762;2023-09-19T11:03:28;99912.31;;;19.46;51.41
72640;BME280;60683;51.730;8.762;2023-09-19T11:06:04;99905.03;;;19.41;50.43
72640;BME280;60683;51.730;8.762;2023-09-19T11:08:54;99912.38;;;19.41;51.50
72640;BME280;60683;51.730;8.762;2023-09-19T11:11:43;99908.44;;;18.96;50.18
72640;BME280;60683;51.730;8.762;2023-09-19T11:14:37;99900.94;;;19.06;50.81
72640;BME280;60683;51.730;8.762;2023-09-19T11:17:31;99911.31;;;19.23;50.21
72640;BME280;60683;51.730;8.762;2023-09-19T11:20:21;99897.03;;;19.12;50.39
72640;BME280;60683;51.730;8.762;2023-09-19T11:23:23;99902.47;;;19.31;50.16
72640;BME280;60683;51.730;8.762;2023-09-19T11:25:53;99902.88;;;19.06;50.08
72640;BME280;60683;51.730;8.762;2023-09-19T11:28:33;99887.41;;;19.20;50.24
72640;BME280;60683;51.730;8.762;2023-09-19T11:31:41;99886.22;;;18.89;50.57
72640;BME280;60683;51.730;8.762;2023-09-19T11:34:39;99891.97;;;19.06;50.81
72640;BME280;60683;51.730;8.762;2023-09-19T11:40:09;99875.69;;;19.01;51.10
72640;BME280;60683;51.730;8.762;2023-09-19T11:42:42;99880.78;;;19.07;49.72
72640;BME280;60683;51.730;8.762;2023-09-19T11:48:18;99882.53;;;19.82;48.31
72640;BME280;60683;51.730;8.762;2023-09-19T11:50:47;99881.47;;;19.32;48.31
72640;BME280;60683;51.730;8.762;2023-09-19T11:53:17;99873.41;;;19.59;48.79
72640;BME280;60683;51.730;8.762;2023-09-19T11:55:45;99856.19;;;19.91;47.50
72640;BME280;60683;51.730;8.762;2023-09-19T11:58:33;99853.34;;;20.37;47.99
72640;BME280;60683;51.730;8.762;2023-09-19T12:01:00;99860.03;;;20.45;47.13
72640;BME280;60683;51.730;8.762;2023-09-19T12:03:32;99866.00;;;20.06;47.99
72640;BME280;60683;51.730;8.762;2023-09-19T12:06:10;99862.44;;;20.33;47.07
72640;BME280;60683;51.730;8.762;2023-09-19T12:08:39;99866.63;;;20.16;48.38
72640;BME280;60683;51.730;8.762;2023-09-19T12:11:12;99867.72;;;20.43;47.15
72640;BME280;60683;51.730;8.762;2023-09-19T12:13:42;99864.38;;;20.19;47.33
72640;BME280;60683;51.730;8.762;2023-09-19T12:16:14;99861.13;;;20.30;47.02
72640;BME280;60683;51.730;8.762;2023-09-19T12:18:44;99862.44;;;20.33;47.28
72640;BME280;60683;51.730;8.762;2023-09-19T12:21:27;99856.97;;;20.74;46.73
72640;BME280;60683;51.730;8.762;2023-09-19T12:24:06;99857.28;;;20.95;46.41
72640;BME280;60683;51.730;8.762;2023-09-19T12:26:39;99854.63;;;21.03;45.87
72640;BME280;60683;51.730;8.762;2023-09-19T12:29:11;99860.63;;;21.28;44.84
72640;BME280;60683;51.730;8.762;2023-09-19T12:31:50;99860.47;;;21.10;44.64
72640;BME280;60683;51.730;8.762;2023-09-19T12:34:20;99846.50;;;21.57;43.76
72640;BME280;60683;51.730;8.762;2023-09-19T12:36:49;99855.41;;;20.81;45.16
72640;BME280;60683;51.730;8.762;2023-09-19T12:39:23;99849.63;;;20.83;45.73
72640;BME280;60683;51.730;8.762;2023-09-19T12:41:52;99857.50;;;20.85;45.13
72640;BME280;60683;51.730;8.762;2023-09-19T12:44:20;99853.56;;;20.91;45.31
72640;BME280;60683;51.730;8.762;2023-09-19T12:46:50;99841.53;;;21.14;45.38
72640;BME280;60683;51.730;8.762;2023-09-19T12:49:20;99851.75;;;21.22;45.11
72640;BME280;60683;51.730;8.762;2023-09-19T12:51:54;99841.78;;;21.04;45.54
72640;BME280;60683;51.730;8.762;2023-09-19T12:54:22;99836.13;;;21.00;44.91
72640;BME280;60683;51.730;8.762;2023-09-19T12:56:50;99834.19;;;21.01;44.86
72640;BME280;60683;51.730;8.762;2023-09-19T12:59:29;99835.97;;;20.83;44.74
72640;BME280;60683;51.730;8.762;2023-09-19T13:02:04;99823.75;;;21.03;44.69
72640;BME280;60683;51.730;8.762;2023-09-19T13:04:32;99833.97;;;21.33;44.42
72640;BME280;60683;51.730;8.762;2023-09-19T13:07:01;99827.13;;;21.44;43.53
72640;BME280;60683;51.730;8.762;2023-09-19T13:09:31;99819.50;;;21.64;43.02
72640;BME280;60683;51.730;8.762;2023-09-19T13:12:00;99834.25;;;21.32;42.68
72640;BME280;60683;51.730;8.762;2023-09-19T13:14:29;99829.88;;;21.22;44.00
72640;BME280;60683;51.730;8.762;2023-09-19T13:16:59;99822.25;;;20.97;44.23
72640;BME280;60683;51.730;8.762;2023-09-19T13:19:37;99820.34;;;20.97;44.93
72640;BME280;60683;51.730;8.762;2023-09-19T13:22:41;99813.13;;;21.01;45.00
72640;BME280;60683;51.730;8.762;2023-09-19T13:25:13;99827.72;;;20.97;45.15
72640;BME280;60683;51.730;8.762;2023-09-19T13:27:47;99811.47;;;20.56;46.18
72640;BME280;60683;51.730;8.762;2023-09-19T13:30:17;99812.88;;;21.25;46.03
72640;BME280;60683;51.730;8.762;2023-09-19T13:32:45;99813.44;;;21.44;44.14
72640;BME280;60683;51.730;8.762;2023-09-19T13:35:13;99814.31;;;21.93;43.57